createdAt,value
2018-11-14T00:00:03.146Z,5.67
2018-11-14T00:02:31.521Z,6.15
2018-11-14T00:04:59.929Z,6.37
2018-11-14T00:07:28.643Z,6.25
2018-11-14T00:09:57.238Z,6.10
2018-11-14T00:12:25.592Z,6.22
2018-11-14T00:14:53.988Z,6.70
2018-11-14T00:17:22.471Z,6.37
2018-11-14T00:19:50.811Z,7.28
2018-11-14T00:22:19.171Z,6.45
2018-11-14T00:24:47.683Z,7.08
2018-11-14T00:27:16.020Z,6.83
2018-11-14T00:29:44.387Z,7.55
2018-11-14T00:32:12.735Z,7.65
2018-11-14T00:34:41.174Z,7.30
2018-11-14T00:37:09.516Z,7.95
2018-11-14T00:39:37.927Z,7.10
2018-11-14T00:42:06.334Z,7.15
2018-11-14T00:44:34.683Z,6.83
2018-11-14T00:47:03.040Z,7.17
2018-11-14T00:49:31.395Z,7.45
2018-11-14T00:51:59.777Z,6.92
2018-11-14T00:54:28.114Z,7.45
2018-11-14T00:56:56.467Z,7.72
2018-11-14T00:59:24.898Z,8.33
2018-11-14T01:01:53.304Z,7.20
2018-11-14T01:04:21.691Z,7.35
2018-11-14T01:06:50.077Z,6.35
2018-11-14T01:09:18.632Z,7.87
2018-11-14T01:11:46.834Z,7.67
2018-11-14T01:14:15.210Z,6.95
2018-11-14T01:16:43.724Z,7.40
2018-11-14T01:19:12.068Z,7.00
2018-11-14T01:21:40.426Z,7.42
2018-11-14T01:24:08.936Z,7.20
2018-11-14T01:26:37.294Z,6.40
2018-11-14T01:29:05.740Z,7.85
2018-11-14T01:31:34.138Z,7.75
2018-11-14T01:34:02.539Z,7.37
2018-11-14T01:36:30.898Z,7.35
2018-11-14T01:38:59.247Z,7.00
2018-11-14T01:41:28.087Z,7.67
2018-11-14T01:43:56.447Z,6.58
2018-11-14T01:46:24.808Z,7.03
2018-11-14T01:48:53.162Z,7.60
2018-11-14T01:51:21.502Z,6.15
2018-11-14T01:53:49.917Z,7.92
2018-11-14T01:56:18.243Z,8.25
2018-11-14T01:58:46.655Z,7.97
2018-11-14T02:01:15.014Z,8.03
2018-11-14T02:03:44.331Z,7.80
2018-11-14T02:06:12.654Z,7.37
2018-11-14T02:08:41.111Z,7.20
2018-11-14T02:11:09.468Z,7.62
2018-11-14T02:13:37.835Z,7.85
2018-11-14T02:16:06.696Z,7.75
2018-11-14T02:18:35.115Z,9.90
2018-11-14T02:21:03.495Z,8.33
2018-11-14T02:23:31.887Z,10.08
2018-11-14T02:26:00.225Z,10.70
2018-11-14T02:28:28.614Z,11.68
2018-11-14T02:30:56.987Z,9.70
2018-11-14T02:33:25.331Z,10.53
2018-11-14T02:35:53.737Z,10.75
2018-11-14T02:38:22.098Z,11.28
2018-11-14T02:40:50.515Z,10.38
2018-11-14T02:43:18.904Z,10.98
2018-11-14T02:45:47.265Z,11.57
2018-11-14T02:48:15.694Z,12.37
2018-11-14T02:50:44.228Z,11.68
2018-11-14T02:53:12.598Z,10.85
2018-11-14T02:55:40.973Z,11.05
2018-11-14T02:58:09.331Z,10.55
2018-11-14T03:00:37.682Z,10.90
2018-11-14T03:03:06.059Z,11.50
2018-11-14T03:05:34.507Z,10.40
2018-11-14T03:08:02.837Z,10.50
2018-11-14T03:10:31.195Z,10.48
2018-11-14T03:12:59.570Z,10.38
2018-11-14T03:15:28.016Z,10.93
2018-11-14T03:17:56.375Z,11.88
2018-11-14T03:20:24.755Z,11.25
2018-11-14T03:22:53.115Z,11.73
2018-11-14T03:25:21.463Z,11.60
2018-11-14T03:27:49.808Z,11.25
2018-11-14T03:30:18.800Z,10.72
2018-11-14T03:32:47.187Z,11.10
2018-11-14T03:35:15.951Z,11.93
2018-11-14T03:37:44.316Z,10.82
2018-11-14T03:40:14.921Z,10.50
2018-11-14T03:42:43.341Z,10.00
2018-11-14T03:45:12.932Z,10.05
2018-11-14T03:47:42.015Z,12.23
2018-11-14T03:50:10.742Z,11.93
2018-11-14T03:52:39.180Z,10.95
2018-11-14T03:55:07.616Z,10.80
2018-11-14T03:57:36.084Z,10.88
2018-11-14T04:00:07.645Z,9.83
2018-11-14T04:02:36.059Z,11.30
2018-11-14T04:05:05.115Z,10.70
2018-11-14T04:07:33.510Z,9.65
2018-11-14T04:10:01.882Z,10.45
2018-11-14T04:12:30.317Z,10.95
2018-11-14T04:14:58.614Z,9.45
2018-11-14T04:17:26.984Z,12.43
2018-11-14T04:19:55.323Z,9.95
2018-11-14T04:22:23.719Z,10.75
2018-11-14T04:24:52.067Z,11.03
2018-11-14T04:27:20.429Z,10.32
2018-11-14T04:29:48.756Z,11.03
2018-11-14T04:32:17.151Z,11.43
2018-11-14T04:34:45.560Z,10.90
2018-11-14T04:37:13.905Z,10.95
2018-11-14T04:39:42.763Z,9.78
2018-11-14T04:42:11.851Z,10.45
2018-11-14T04:44:40.927Z,11.22
2018-11-14T04:47:09.238Z,10.90
2018-11-14T04:49:37.678Z,11.30
2018-11-14T04:52:06.029Z,12.40
2018-11-14T04:54:34.403Z,13.10
2018-11-14T04:57:02.723Z,13.22
2018-11-14T04:59:31.131Z,13.95
2018-11-14T05:01:59.511Z,15.00
2018-11-14T05:04:27.884Z,14.00
2018-11-14T05:06:56.228Z,16.42
2018-11-14T05:09:24.576Z,14.85
2018-11-14T05:11:52.931Z,14.20
2018-11-14T05:14:21.305Z,14.78
2018-11-14T05:16:49.642Z,14.63
2018-11-14T05:19:18.105Z,14.30
2018-11-14T05:21:46.435Z,18.73
2018-11-14T05:24:14.801Z,16.32
2018-11-14T05:26:43.169Z,16.07
2018-11-14T05:29:11.542Z,16.67
2018-11-14T05:31:40.553Z,23.05
2018-11-14T05:34:08.857Z,19.70
2018-11-14T05:36:37.227Z,19.82
2018-11-14T05:39:08.515Z,19.98
2018-11-14T05:41:36.926Z,19.25
2018-11-14T05:44:05.476Z,19.35
2018-11-14T05:46:34.069Z,19.45
2018-11-14T05:49:02.485Z,18.73
2018-11-14T05:51:30.834Z,15.32
2018-11-14T05:53:59.223Z,15.55
2018-11-14T05:56:27.582Z,14.90
2018-11-14T05:58:55.956Z,15.48
2018-11-14T06:01:24.329Z,14.10
2018-11-14T06:03:52.655Z,14.68
2018-11-14T06:06:21.022Z,16.45
2018-11-14T06:08:49.931Z,17.00
2018-11-14T06:11:18.322Z,13.62
2018-11-14T06:13:46.998Z,15.68
2018-11-14T06:16:15.323Z,14.55
2018-11-14T06:18:43.703Z,15.58
2018-11-14T06:21:12.085Z,15.20
2018-11-14T06:23:40.570Z,13.53
2018-11-14T06:26:08.831Z,14.60
2018-11-14T06:28:37.164Z,15.65
2018-11-14T06:31:05.658Z,14.30
2018-11-14T06:33:34.043Z,14.63
2018-11-14T06:36:02.698Z,14.55
2018-11-14T06:38:31.112Z,14.70
2018-11-14T06:40:59.455Z,16.20
2018-11-14T06:43:27.823Z,16.25
2018-11-14T06:45:56.153Z,13.80
2018-11-14T06:48:24.502Z,13.25
2018-11-14T06:50:52.963Z,13.95
2018-11-14T06:53:21.367Z,14.33
2018-11-14T06:55:49.726Z,15.20
2018-11-14T06:58:18.078Z,14.38
2018-11-14T07:00:46.455Z,14.58
2018-11-14T07:03:14.842Z,15.68
2018-11-14T07:05:43.207Z,17.42
2018-11-14T07:08:11.568Z,16.27
2018-11-14T07:10:40.018Z,15.58
2018-11-14T07:13:09.739Z,15.72
2018-11-14T07:15:38.614Z,18.67
2018-11-14T07:18:08.059Z,18.73
2018-11-14T07:20:37.942Z,18.00
2018-11-14T07:23:06.371Z,18.80
2018-11-14T07:25:34.758Z,22.27
2018-11-14T07:28:03.154Z,23.25
2018-11-14T07:30:32.184Z,23.57
2018-11-14T07:33:02.859Z,22.13
2018-11-14T07:35:31.217Z,21.97
2018-11-14T07:38:11.594Z,23.07
2018-11-14T07:40:39.979Z,20.60
2018-11-14T07:43:08.353Z,23.05
2018-11-14T07:45:36.752Z,20.70
2018-11-14T07:48:05.216Z,23.15
2018-11-14T07:50:33.579Z,21.85
2018-11-14T07:53:01.966Z,20.80
2018-11-14T07:55:30.287Z,22.73
2018-11-14T07:57:58.662Z,26.52
2018-11-14T08:00:27.023Z,24.18
2018-11-14T08:02:55.574Z,26.60
2018-11-14T08:05:23.926Z,24.63
2018-11-14T08:07:52.447Z,25.45
2018-11-14T08:10:20.730Z,24.57
2018-11-14T08:12:49.764Z,27.32
2018-11-14T08:15:18.142Z,24.98
2018-11-14T08:17:46.505Z,25.23
2018-11-14T08:20:14.834Z,25.88
2018-11-14T08:22:43.251Z,22.67
2018-11-14T08:25:11.893Z,22.42
2018-11-14T08:27:40.218Z,23.45
2018-11-14T08:30:10.541Z,21.75
2018-11-14T08:32:39.532Z,22.02
2018-11-14T08:35:09.251Z,21.70
2018-11-14T08:37:37.963Z,22.95
2018-11-14T08:40:07.790Z,22.95
2018-11-14T08:42:36.667Z,23.30
2018-11-14T08:45:06.604Z,21.65
2018-11-14T08:47:35.018Z,19.95
2018-11-14T08:50:03.543Z,21.93
2018-11-14T08:52:31.944Z,21.07
2018-11-14T08:55:05.151Z,20.45
2018-11-14T08:57:33.498Z,21.50
2018-11-14T09:00:01.892Z,21.55
2018-11-14T09:02:30.379Z,23.65
2018-11-14T09:04:58.815Z,24.25
2018-11-14T09:07:27.188Z,24.23
2018-11-14T09:09:55.549Z,25.35
2018-11-14T09:12:23.931Z,25.00
2018-11-14T09:14:52.407Z,24.57
2018-11-14T09:17:20.787Z,26.80
2018-11-14T09:19:49.162Z,26.15
2018-11-14T09:22:18.853Z,29.52
2018-11-14T09:24:47.375Z,25.50
2018-11-14T09:27:15.733Z,25.85
2018-11-14T09:29:44.097Z,29.32
2018-11-14T09:32:12.464Z,26.15
2018-11-14T09:34:40.885Z,27.93
2018-11-14T09:37:09.258Z,27.65
2018-11-14T09:39:37.614Z,26.15
2018-11-14T09:42:06.964Z,26.50
2018-11-14T09:44:35.916Z,24.75
2018-11-14T09:47:04.338Z,24.75
2018-11-14T09:49:32.948Z,23.67
2018-11-14T09:52:01.198Z,24.70
2018-11-14T09:54:29.594Z,25.08
2018-11-14T09:56:58.066Z,25.48
2018-11-14T09:59:26.366Z,26.75
2018-11-14T10:01:55.418Z,25.15
2018-11-14T10:04:23.774Z,26.00
2018-11-14T10:06:52.173Z,25.62
2018-11-14T10:09:20.534Z,28.32
2018-11-14T10:11:50.962Z,25.85
2018-11-14T10:14:19.299Z,24.55
2018-11-14T10:16:47.707Z,24.37
2018-11-14T10:19:16.061Z,26.62
2018-11-14T10:21:44.611Z,27.00
2018-11-14T10:24:13.027Z,26.27
2018-11-14T10:26:41.406Z,26.02
2018-11-14T10:29:09.800Z,25.82
2018-11-14T10:31:38.276Z,27.15
2018-11-14T10:34:06.546Z,29.90
2018-11-14T10:36:34.885Z,31.07
2018-11-14T10:39:03.708Z,27.93
2018-11-14T10:41:32.141Z,26.20
2018-11-14T10:44:00.542Z,26.15
2018-11-14T10:46:28.897Z,28.47
2018-11-14T10:48:57.413Z,28.85
2018-11-14T10:51:25.785Z,28.32
2018-11-14T10:53:54.544Z,28.10
2018-11-14T10:56:22.894Z,28.55
2018-11-14T10:58:51.376Z,26.52
2018-11-14T11:01:25.210Z,28.70
2018-11-14T11:03:58.943Z,26.10
2018-11-14T11:06:34.536Z,24.47
2018-11-14T11:09:09.720Z,23.90
2018-11-14T11:11:43.945Z,22.60
2018-11-14T11:14:17.656Z,23.73
2018-11-14T11:16:51.517Z,22.85
2018-11-14T11:19:23.145Z,22.15
2018-11-14T11:21:51.558Z,20.20
2018-11-14T11:24:20.987Z,21.45
2018-11-14T11:26:49.350Z,20.62
2018-11-14T11:29:17.774Z,19.27
2018-11-14T11:31:46.257Z,18.82
2018-11-14T11:34:14.620Z,18.98
2018-11-14T11:36:43.014Z,17.75
2018-11-14T11:39:13.278Z,19.35
2018-11-14T11:41:42.194Z,20.20
2018-11-14T11:44:10.758Z,19.17
2018-11-14T11:46:40.013Z,19.42
2018-11-14T11:49:08.523Z,18.55
2018-11-14T11:51:36.932Z,21.27
2018-11-14T11:54:06.040Z,19.42
2018-11-14T11:56:34.458Z,18.50
2018-11-14T11:59:02.823Z,18.07
2018-11-14T12:01:31.214Z,17.80
2018-11-14T12:03:59.571Z,18.27
2018-11-14T12:06:28.062Z,16.20
2018-11-14T12:08:56.330Z,15.90
2018-11-14T12:11:24.721Z,17.30
2018-11-14T12:13:53.155Z,15.20
2018-11-14T12:16:21.566Z,16.23
2018-11-14T12:18:50.067Z,12.77
2018-11-14T12:21:18.433Z,14.10
2018-11-14T12:23:46.907Z,13.20
2018-11-14T12:26:15.160Z,13.07
2018-11-14T12:28:43.534Z,13.93
2018-11-14T12:31:12.008Z,13.13
2018-11-14T12:33:40.278Z,13.50
2018-11-14T12:36:08.672Z,14.07
2018-11-14T12:38:37.084Z,13.47
2018-11-14T12:41:05.419Z,14.30
2018-11-14T12:43:34.541Z,13.27
2018-11-14T12:46:02.953Z,13.60
2018-11-14T12:48:31.951Z,13.43
2018-11-14T12:51:00.374Z,12.93
2018-11-14T12:53:28.847Z,12.40
2018-11-14T12:55:57.251Z,12.10
2018-11-14T12:58:26.209Z,12.00
2018-11-14T13:00:54.639Z,10.80
2018-11-14T13:03:23.054Z,11.30
2018-11-14T13:05:51.453Z,12.43
2018-11-14T13:08:19.820Z,11.90
2018-11-14T13:10:48.203Z,11.80
2018-11-14T13:13:16.554Z,11.80
2018-11-14T13:15:45.472Z,12.37
2018-11-14T13:18:13.808Z,12.60
2018-11-14T13:20:42.150Z,11.80
2018-11-14T13:23:10.526Z,12.20
2018-11-14T13:25:38.872Z,12.27
2018-11-14T13:28:07.213Z,11.47
2018-11-14T13:30:35.601Z,14.87
2018-11-14T13:33:03.938Z,12.00
2018-11-14T13:35:32.392Z,12.73
2018-11-14T13:38:00.799Z,13.53
2018-11-14T13:40:29.378Z,13.20
2018-11-14T13:42:57.838Z,13.77
2018-11-14T13:45:26.132Z,13.60
2018-11-14T13:47:54.626Z,12.43
2018-11-14T13:50:23.463Z,13.73
2018-11-14T13:52:51.665Z,14.40
2018-11-14T13:55:21.034Z,13.53
2018-11-14T13:57:50.644Z,15.33
2018-11-14T14:00:20.149Z,16.03
2018-11-14T14:02:49.467Z,15.57
2018-11-14T14:05:20.066Z,15.67
2018-11-14T14:07:48.589Z,14.50
2018-11-14T14:10:17.431Z,18.37
2018-11-14T14:12:47.150Z,15.10
2018-11-14T14:15:23.111Z,16.20
2018-11-14T14:17:51.792Z,15.70
2018-11-14T14:20:20.643Z,14.83
2018-11-14T14:22:49.155Z,13.40
2018-11-14T14:25:22.147Z,12.60
2018-11-14T14:27:51.431Z,11.47
2018-11-14T14:30:21.276Z,12.83
2018-11-14T14:32:49.940Z,12.27
2018-11-14T14:35:19.453Z,11.90
2018-11-14T14:37:47.893Z,12.37
2018-11-14T14:40:17.739Z,12.10
2018-11-14T14:42:46.319Z,11.33
2018-11-14T14:45:16.201Z,11.60
2018-11-14T14:47:44.593Z,15.05
2018-11-14T14:50:15.041Z,13.15
2018-11-14T14:52:43.833Z,14.98
2018-11-14T14:55:17.621Z,14.37
2018-11-14T14:57:46.620Z,15.45
2018-11-14T15:00:20.531Z,17.70
2018-11-14T15:02:48.871Z,16.90
2018-11-14T15:05:17.259Z,17.00
2018-11-14T15:07:45.661Z,19.37
2018-11-14T15:10:16.567Z,17.90
2018-11-14T15:12:44.930Z,19.10
2018-11-14T15:15:14.042Z,17.17
2018-11-14T15:17:42.649Z,16.90
2018-11-14T15:20:14.606Z,20.23
2018-11-14T15:22:43.424Z,19.62
2018-11-14T15:25:13.183Z,19.42
2018-11-14T15:27:42.091Z,18.48
2018-11-14T15:30:19.165Z,19.90
2018-11-14T15:32:47.550Z,19.65
2018-11-14T15:35:15.991Z,20.43
2018-11-14T15:37:44.358Z,19.77
2018-11-14T15:40:14.110Z,19.77
2018-11-14T15:42:42.640Z,19.20
2018-11-14T15:45:14.032Z,20.60
2018-11-14T15:47:42.723Z,19.37
2018-11-14T15:50:13.561Z,18.67
2018-11-14T15:52:43.066Z,21.05
2018-11-14T15:55:12.366Z,18.15
2018-11-14T15:57:40.879Z,19.73
2018-11-14T16:00:14.558Z,22.00
2018-11-14T16:02:43.006Z,20.40
2018-11-14T16:05:13.853Z,20.23
2018-11-14T16:07:43.193Z,19.85
2018-11-14T16:10:12.770Z,20.15
2018-11-14T16:12:41.897Z,22.55
2018-11-14T16:15:12.039Z,20.62
2018-11-14T16:17:41.112Z,20.23
2018-11-14T16:20:11.501Z,14.45
2018-11-14T16:22:39.895Z,12.18
2018-11-14T16:25:11.017Z,13.10
2018-11-14T16:27:39.801Z,8.90
2018-11-14T16:30:11.668Z,9.30
2018-11-14T16:32:40.017Z,9.15
2018-11-14T16:35:08.403Z,7.90
2018-11-14T16:37:36.830Z,8.08
2018-11-14T16:40:07.398Z,7.67
2018-11-14T16:42:35.726Z,7.67
2018-11-14T16:45:04.327Z,7.33
2018-11-14T16:47:32.635Z,7.22
2018-11-14T16:50:01.056Z,7.95
2018-11-14T16:52:29.403Z,7.58
2018-11-14T16:54:57.791Z,7.20
2018-11-14T16:57:26.212Z,7.75
2018-11-14T16:59:54.712Z,8.65
2018-11-14T17:02:23.055Z,8.70
2018-11-14T17:04:51.812Z,8.53
2018-11-14T17:07:20.273Z,8.48
2018-11-14T17:09:48.617Z,8.25
2018-11-14T17:12:17.003Z,9.63
2018-11-14T17:14:45.425Z,9.65
2018-11-14T17:17:13.817Z,10.30
2018-11-14T17:19:42.167Z,10.53
2018-11-14T17:22:10.586Z,11.18
2018-11-14T17:24:39.055Z,10.38
2018-11-14T17:27:07.563Z,10.80
2018-11-14T17:29:35.966Z,11.05
2018-11-14T17:32:04.373Z,12.20
2018-11-14T17:34:32.734Z,12.58
2018-11-14T17:37:01.145Z,11.65
2018-11-14T17:39:29.466Z,13.60
2018-11-14T17:41:58.098Z,13.68
2018-11-14T17:44:26.442Z,12.63
2018-11-14T17:46:54.828Z,11.48
2018-11-14T17:49:23.268Z,11.80
2018-11-14T17:51:51.664Z,12.53
2018-11-14T17:54:20.089Z,11.75
2018-11-14T17:56:48.468Z,12.98
2018-11-14T17:59:16.855Z,12.73
2018-11-14T18:01:49.667Z,12.47
2018-11-14T18:04:18.102Z,13.98
2018-11-14T18:06:46.444Z,13.75
2018-11-14T18:09:15.071Z,12.93
2018-11-14T18:11:43.435Z,12.47
2018-11-14T18:14:11.888Z,12.30
2018-11-14T18:16:40.239Z,13.15
2018-11-14T18:19:08.706Z,13.03
2018-11-14T18:21:37.092Z,12.13
2018-11-14T18:24:05.756Z,13.43
2018-11-14T18:26:34.240Z,12.78
2018-11-14T18:29:02.763Z,13.72
2018-11-14T18:31:31.190Z,12.07
2018-11-14T18:33:59.606Z,11.88
2018-11-14T18:36:28.170Z,13.62
2018-11-14T18:38:56.503Z,15.25
2018-11-14T18:41:24.982Z,13.65
2018-11-14T18:43:53.363Z,14.33
2018-11-14T18:46:21.811Z,14.13
2018-11-14T18:48:50.152Z,13.72
2018-11-14T18:51:18.688Z,15.75
2018-11-14T18:53:47.152Z,15.80
2018-11-14T18:56:15.639Z,14.75
2018-11-14T18:58:44.031Z,15.08
2018-11-14T19:01:13.112Z,15.00
2018-11-14T19:03:41.601Z,16.23
2018-11-14T19:06:10.073Z,15.10
2018-11-14T19:08:38.546Z,16.05
2018-11-14T19:11:07.927Z,17.07
2018-11-14T19:13:36.329Z,15.18
2018-11-14T19:16:05.038Z,16.40
2018-11-14T19:18:33.481Z,18.30
2018-11-14T19:21:02.039Z,16.70
2018-11-14T19:23:30.472Z,17.07
2018-11-14T19:25:59.514Z,18.23
2018-11-14T19:28:27.954Z,16.95
2018-11-14T19:30:57.008Z,16.45
2018-11-14T19:33:25.442Z,17.75
2018-11-14T19:35:53.895Z,17.35
2018-11-14T19:38:23.096Z,17.90
2018-11-14T19:40:51.595Z,20.97
2018-11-14T19:43:20.029Z,21.85
2018-11-14T19:45:48.411Z,20.10
2018-11-14T19:48:16.830Z,20.82
2018-11-14T19:50:45.198Z,21.12
2018-11-14T19:53:14.582Z,20.88
2018-11-14T19:55:43.154Z,21.30
2018-11-14T19:58:11.477Z,20.57
2018-11-14T20:00:40.379Z,20.52
2018-11-14T20:03:09.437Z,20.45
2018-11-14T20:05:38.682Z,20.85
2018-11-14T20:08:07.102Z,19.95
2018-11-14T20:10:35.627Z,19.98
2018-11-14T20:13:03.993Z,21.05
2018-11-14T20:15:33.818Z,19.82
2018-11-14T20:18:02.292Z,22.25
2018-11-14T20:20:32.125Z,20.65
2018-11-14T20:23:00.515Z,21.70
2018-11-14T20:25:28.991Z,20.55
2018-11-14T20:27:57.360Z,19.17
2018-11-14T20:30:27.317Z,21.30
2018-11-14T20:32:56.984Z,20.60
2018-11-14T20:35:25.980Z,19.30
2018-11-14T20:37:54.396Z,19.40
2018-11-14T20:40:23.300Z,20.40
2018-11-14T20:42:52.462Z,18.35
2018-11-14T20:45:35.664Z,20.32
2018-11-14T20:48:04.109Z,19.98
2018-11-14T20:50:32.594Z,19.42
2018-11-14T20:53:02.652Z,21.77
2018-11-14T20:55:31.919Z,21.48
2018-11-14T20:58:00.801Z,19.45
2018-11-14T21:00:36.684Z,21.25
2018-11-14T21:03:05.755Z,20.37
2018-11-14T21:05:34.271Z,19.60
2018-11-14T21:08:02.592Z,20.08
2018-11-14T21:10:32.307Z,19.55
2018-11-14T21:13:01.436Z,18.85
2018-11-14T21:15:31.250Z,20.90
2018-11-14T21:18:00.573Z,16.65
2018-11-14T21:20:29.055Z,20.10
2018-11-14T21:22:57.529Z,19.85
2018-11-14T21:25:26.364Z,19.37
2018-11-14T21:27:55.338Z,19.62
2018-11-14T21:30:25.057Z,19.30
2018-11-14T21:32:53.662Z,18.77
2018-11-14T21:35:24.741Z,18.50
2018-11-14T21:37:54.516Z,20.02
2018-11-14T21:40:23.653Z,20.50
2018-11-14T21:42:52.022Z,20.10
2018-11-14T21:45:21.911Z,19.32
2018-11-14T21:47:55.696Z,19.62
2018-11-14T21:50:25.301Z,18.50
2018-11-14T21:52:53.826Z,18.45
2018-11-14T21:55:22.191Z,20.08
2018-11-14T21:57:50.535Z,18.95
2018-11-14T22:00:21.507Z,19.75
2018-11-14T22:02:51.295Z,19.20
2018-11-14T22:05:19.858Z,19.90
2018-11-14T22:07:48.295Z,17.12
2018-11-14T22:10:17.874Z,16.90
2018-11-14T22:12:46.647Z,16.30
2018-11-14T22:15:16.112Z,15.85
2018-11-14T22:17:44.479Z,14.90
2018-11-14T22:20:15.572Z,17.50
2018-11-14T22:22:45.886Z,16.42
2018-11-14T22:25:18.660Z,15.70
2018-11-14T22:27:47.090Z,16.17
2018-11-14T22:30:18.307Z,16.10
2018-11-14T22:32:46.722Z,14.33
2018-11-14T22:35:16.309Z,18.00
2018-11-14T22:37:44.758Z,17.27
2018-11-14T22:40:14.824Z,17.55
2018-11-14T22:42:43.560Z,16.90
2018-11-14T22:45:14.403Z,16.42
2018-11-14T22:47:43.296Z,16.50
2018-11-14T22:50:13.118Z,16.95
2018-11-14T22:52:42.294Z,17.00
2018-11-14T22:55:11.982Z,15.00
2018-11-14T22:57:40.678Z,18.62
2018-11-14T23:00:29.939Z,16.50
2018-11-14T23:02:59.434Z,15.75
2018-11-14T23:05:28.213Z,15.95
2018-11-14T23:07:57.642Z,16.45
2018-11-14T23:10:26.607Z,15.83
2018-11-14T23:12:54.993Z,16.00
2018-11-14T23:15:24.207Z,14.43
2018-11-14T23:17:52.679Z,15.58
2018-11-14T23:20:21.105Z,16.62
2018-11-14T23:22:50.127Z,14.53
2018-11-14T23:25:19.055Z,15.05
2018-11-14T23:27:49.678Z,16.97
2018-11-14T23:30:19.181Z,16.40
2018-11-14T23:32:48.892Z,17.77
2018-11-14T23:35:21.344Z,16.25
2018-11-14T23:37:50.988Z,16.42
2018-11-14T23:40:19.559Z,16.87
2018-11-14T23:42:48.353Z,16.45
2018-11-14T23:45:17.255Z,15.53
2018-11-14T23:47:46.304Z,16.32
2018-11-14T23:50:18.003Z,15.40
2018-11-14T23:52:47.351Z,17.00
2018-11-14T23:55:16.413Z,15.20
2018-11-14T23:57:44.801Z,16.27
